Breckenridge, Illinois
Current Conditions -  °F | °C
As of 4:52 AM on Friday 28 Nov 2014 (Local Time) from KSPI Reporting Station
Broken Clouds Broken Clouds  
Wind Chill:   Ceiling: 12000
Heat Index: 17°   Visibility: 10mi
Dew Point: 10°   Wind: 8mph
Humidity: 74%   Direction: 120°ESE
Pressure: 30.32"   Gusts: NA
Location:  39.7312°N, 89.5322°W
Report Text: KSPI 281052Z AUTO 12007KT 10SM SCT070 BKN120 M08/M12 A3032 RMK AO2 SLP276 T10831122
Loading
Personal Weather Stations






























Interactive Weather Map New forecast layout! Learn more

10-Day Weather Forecast

Advertisements
Track Severe Weather on mobile